Milton, Florida
Current Conditions -  °F | °C
As of 2:56 AM on Wednesday 22 Oct 2014 (Local Time) from KNDZ Reporting Station
Clear Clear  
Wind Chill: 61°   Ceiling: Unl
Heat Index: 61°   Visibility: 10mi
Dew Point: 54°   Wind: 8mph
Humidity: 78%   Direction: 350°N
Pressure: 30.01"   Gusts: NA
Location:  30.63°N, 87.04°W
Report Text: KNDZ 220756Z AUTO 35007KT 10SM CLR 16/12 A3001 RMK AO2 SLP148 T01610122 $
Loading
Personal Weather Stations






























Interactive Weather Map New forecast layout! Learn more

10-Day Weather Forecast

Advertisements
Track Severe Weather on mobile